Abbott, New Mexico
Current Conditions -  °F | °C
As of 1:53 PM on Monday 24 Nov 2014 (Local Time) from KRTN Reporting Station
Broken Clouds Broken Clouds  
Wind Chill: 28°   Ceiling: 9000
Heat Index: 37°   Visibility: 10mi
Dew Point:   Wind: 15mph
Humidity: 22%   Direction: 360°N
Pressure: 29.98"   Gusts: 25mph
Location:  36.3883°N, 104.381°W
Report Text: KRTN 242053Z AUTO 36013G22KT 10SM BKN090 BKN110 03/M17 A2998 RMK AO2 PK WND 04028/2032 SLP165 T00281172 53002
Loading
Personal Weather Stations






























Interactive Weather Map New forecast layout! Learn more

10-Day Weather Forecast

Advertisements
Track Severe Weather on mobile